Terminal Aerodrome Forecast
Issued by NWS Grand Forks, ND

Home | Current Version | Previous Version | Text Only | Print | Product List | Glossary On
Versions: 1 2 3 4 5 6 7 8 9 10 11 12 13 14 15 16 17 18
046
FTUS43 KFGF 271120
TAFGFK
TAF
KGFK 271120Z 2712/2812 31009KT P6SM SKC
     FM271600 33014KT P6SM BKN040
     FM272200 36011KT P6SM BKN090
     FM280000 01003KT P6SM FEW100=

USA.gov is the U.S. government's official web portal to all federal, state and local government web resources and services.